sensor_id;sensor_type;location;lat;lon;timestamp;P1;durP1;ratioP1;P2;durP2;ratioP2
35632;SDS011;21754;48.216;-1.628;2023-04-03T00:00:38;10.15;;;2.40;;
35632;SDS011;21754;48.216;-1.628;2023-04-03T00:03:04;4.47;;;1.85;;
35632;SDS011;21754;48.216;-1.628;2023-04-03T00:05:30;13.30;;;2.13;;
35632;SDS011;21754;48.216;-1.628;2023-04-03T00:07:56;7.90;;;3.08;;
35632;SDS011;21754;48.216;-1.628;2023-04-03T00:10:22;13.32;;;2.60;;
35632;SDS011;21754;48.216;-1.628;2023-04-03T00:12:48;9.38;;;3.10;;
35632;SDS011;21754;48.216;-1.628;2023-04-03T00:15:15;7.55;;;2.90;;
35632;SDS011;21754;48.216;-1.628;2023-04-03T00:17:41;3.17;;;1.88;;
35632;SDS011;21754;48.216;-1.628;2023-04-03T00:20:07;5.80;;;2.60;;
35632;SDS011;21754;48.216;-1.628;2023-04-03T00:22:33;7.30;;;2.30;;
35632;SDS011;21754;48.216;-1.628;2023-04-03T00:24:59;7.63;;;2.28;;
35632;SDS011;21754;48.216;-1.628;2023-04-03T00:27:25;5.57;;;2.00;;
35632;SDS011;21754;48.216;-1.628;2023-04-03T00:29:51;7.40;;;2.22;;
35632;SDS011;21754;48.216;-1.628;2023-04-03T00:32:18;20.60;;;3.53;;
35632;SDS011;21754;48.216;-1.628;2023-04-03T00:34:44;2.75;;;2.10;;
35632;SDS011;21754;48.216;-1.628;2023-04-03T00:37:10;11.07;;;2.42;;
35632;SDS011;21754;48.216;-1.628;2023-04-03T00:39:36;6.57;;;2.30;;
35632;SDS011;21754;48.216;-1.628;2023-04-03T00:42:02;2.35;;;1.95;;
35632;SDS011;21754;48.216;-1.628;2023-04-03T00:46:54;15.18;;;2.78;;
35632;SDS011;21754;48.216;-1.628;2023-04-03T00:49:20;5.47;;;2.88;;
35632;SDS011;21754;48.216;-1.628;2023-04-03T00:51:46;4.45;;;3.45;;
35632;SDS011;21754;48.216;-1.628;2023-04-03T00:54:12;2.80;;;2.38;;
35632;SDS011;21754;48.216;-1.628;2023-04-03T00:56:38;6.25;;;2.67;;
35632;SDS011;21754;48.216;-1.628;2023-04-03T00:59:06;12.75;;;2.75;;
35632;SDS011;21754;48.216;-1.628;2023-04-03T01:01:34;6.60;;;3.22;;
35632;SDS011;21754;48.216;-1.628;2023-04-03T01:04:00;14.82;;;2.33;;
35632;SDS011;21754;48.216;-1.628;2023-04-03T01:06:29;3.38;;;2.40;;
35632;SDS011;21754;48.216;-1.628;2023-04-03T01:08:57;7.80;;;2.58;;
35632;SDS011;21754;48.216;-1.628;2023-04-03T01:11:24;4.40;;;2.28;;
35632;SDS011;21754;48.216;-1.628;2023-04-03T01:13:51;6.53;;;2.65;;
35632;SDS011;21754;48.216;-1.628;2023-04-03T01:16:17;7.38;;;2.53;;
35632;SDS011;21754;48.216;-1.628;2023-04-03T01:18:43;6.93;;;2.88;;
35632;SDS011;21754;48.216;-1.628;2023-04-03T01:26:40;7.63;;;2.40;;
35632;SDS011;21754;48.216;-1.628;2023-04-03T01:29:06;10.82;;;2.22;;
35632;SDS011;21754;48.216;-1.628;2023-04-03T01:31:43;17.58;;;3.97;;
35632;SDS011;21754;48.216;-1.628;2023-04-03T01:34:10;6.55;;;2.28;;
35632;SDS011;21754;48.216;-1.628;2023-04-03T01:36:36;13.45;;;3.17;;
35632;SDS011;21754;48.216;-1.628;2023-04-03T01:39:02;14.07;;;2.63;;
35632;SDS011;21754;48.216;-1.628;2023-04-03T01:41:28;17.40;;;3.25;;
35632;SDS011;21754;48.216;-1.628;2023-04-03T01:43:55;18.77;;;3.72;;
35632;SDS011;21754;48.216;-1.628;2023-04-03T01:46:21;3.30;;;2.03;;
35632;SDS011;21754;48.216;-1.628;2023-04-03T01:48:47;11.60;;;2.85;;
35632;SDS011;21754;48.216;-1.628;2023-04-03T01:51:13;11.60;;;2.95;;
35632;SDS011;21754;48.216;-1.628;2023-04-03T01:53:40;7.15;;;2.47;;
35632;SDS011;21754;48.216;-1.628;2023-04-03T01:56:06;4.88;;;2.22;;
35632;SDS011;21754;48.216;-1.628;2023-04-03T01:58:32;13.45;;;3.90;;
35632;SDS011;21754;48.216;-1.628;2023-04-03T02:00:58;9.70;;;2.00;;
35632;SDS011;21754;48.216;-1.628;2023-04-03T02:03:24;10.48;;;3.55;;
35632;SDS011;21754;48.216;-1.628;2023-04-03T02:05:50;11.45;;;3.55;;
35632;SDS011;21754;48.216;-1.628;2023-04-03T02:08:16;8.60;;;2.20;;
35632;SDS011;21754;48.216;-1.628;2023-04-03T02:10:43;12.40;;;2.33;;
35632;SDS011;21754;48.216;-1.628;2023-04-03T02:13:10;6.00;;;1.60;;
35632;SDS011;21754;48.216;-1.628;2023-04-03T02:15:37;14.27;;;2.95;;
35632;SDS011;21754;48.216;-1.628;2023-04-03T02:20:30;5.20;;;2.08;;
35632;SDS011;21754;48.216;-1.628;2023-04-03T02:22:56;11.88;;;2.83;;
35632;SDS011;21754;48.216;-1.628;2023-04-03T02:25:22;7.65;;;1.98;;
35632;SDS011;21754;48.216;-1.628;2023-04-03T02:27:48;5.50;;;2.35;;
35632;SDS011;21754;48.216;-1.628;2023-04-03T02:30:14;6.05;;;2.60;;
35632;SDS011;21754;48.216;-1.628;2023-04-03T02:32:40;12.00;;;2.05;;
35632;SDS011;21754;48.216;-1.628;2023-04-03T02:35:07;14.38;;;2.92;;
35632;SDS011;21754;48.216;-1.628;2023-04-03T02:37:33;8.15;;;2.40;;
35632;SDS011;21754;48.216;-1.628;2023-04-03T02:39:59;5.75;;;2.17;;
35632;SDS011;21754;48.216;-1.628;2023-04-03T02:42:26;8.40;;;3.75;;
35632;SDS011;21754;48.216;-1.628;2023-04-03T02:44:52;15.82;;;3.08;;
35632;SDS011;21754;48.216;-1.628;2023-04-03T02:47:18;8.70;;;2.13;;
35632;SDS011;21754;48.216;-1.628;2023-04-03T02:49:44;6.88;;;2.65;;
35632;SDS011;21754;48.216;-1.628;2023-04-03T02:52:11;3.47;;;1.73;;
35632;SDS011;21754;48.216;-1.628;2023-04-03T02:54:36;13.85;;;3.75;;
35632;SDS011;21754;48.216;-1.628;2023-04-03T02:57:02;3.17;;;2.03;;
35632;SDS011;21754;48.216;-1.628;2023-04-03T02:59:28;3.63;;;1.73;;
35632;SDS011;21754;48.216;-1.628;2023-04-03T03:01:55;17.75;;;2.58;;
35632;SDS011;21754;48.216;-1.628;2023-04-03T03:04:21;11.38;;;2.97;;
35632;SDS011;21754;48.216;-1.628;2023-04-03T03:06:47;8.63;;;2.13;;
35632;SDS011;21754;48.216;-1.628;2023-04-03T03:09:13;17.58;;;1.80;;
35632;SDS011;21754;48.216;-1.628;2023-04-03T03:11:39;6.32;;;2.25;;
35632;SDS011;21754;48.216;-1.628;2023-04-03T03:14:06;11.80;;;2.67;;
35632;SDS011;21754;48.216;-1.628;2023-04-03T03:16:32;16.70;;;2.50;;
35632;SDS011;21754;48.216;-1.628;2023-04-03T03:18:58;9.43;;;2.60;;
35632;SDS011;21754;48.216;-1.628;2023-04-03T03:21:24;9.38;;;1.92;;
35632;SDS011;21754;48.216;-1.628;2023-04-03T03:23:51;22.33;;;2.53;;
35632;SDS011;21754;48.216;-1.628;2023-04-03T03:26:17;9.00;;;3.03;;
35632;SDS011;21754;48.216;-1.628;2023-04-03T03:28:43;16.08;;;2.47;;
35632;SDS011;21754;48.216;-1.628;2023-04-03T03:31:09;14.43;;;3.20;;
35632;SDS011;21754;48.216;-1.628;2023-04-03T03:33:35;8.18;;;3.40;;
35632;SDS011;21754;48.216;-1.628;2023-04-03T03:36:01;7.70;;;1.90;;
35632;SDS011;21754;48.216;-1.628;2023-04-03T03:38:27;8.75;;;2.55;;
35632;SDS011;21754;48.216;-1.628;2023-04-03T03:40:53;9.77;;;2.95;;
35632;SDS011;21754;48.216;-1.628;2023-04-03T03:43:19;10.05;;;3.15;;
35632;SDS011;21754;48.216;-1.628;2023-04-03T03:45:46;5.43;;;2.65;;
35632;SDS011;21754;48.216;-1.628;2023-04-03T03:48:15;10.18;;;2.50;;
35632;SDS011;21754;48.216;-1.628;2023-04-03T03:50:41;17.95;;;3.30;;
35632;SDS011;21754;48.216;-1.628;2023-04-03T03:53:07;10.38;;;2.67;;
35632;SDS011;21754;48.216;-1.628;2023-04-03T03:55:33;9.52;;;2.25;;
35632;SDS011;21754;48.216;-1.628;2023-04-03T03:57:59;7.00;;;2.95;;
35632;SDS011;21754;48.216;-1.628;2023-04-03T04:00:26;4.88;;;2.30;;
35632;SDS011;21754;48.216;-1.628;2023-04-03T04:02:52;11.98;;;3.05;;
35632;SDS011;21754;48.216;-1.628;2023-04-03T04:05:18;5.05;;;1.58;;
35632;SDS011;21754;48.216;-1.628;2023-04-03T04:07:44;6.80;;;2.30;;
35632;SDS011;21754;48.216;-1.628;2023-04-03T04:10:10;11.13;;;2.28;;
35632;SDS011;21754;48.216;-1.628;2023-04-03T04:12:38;11.77;;;2.55;;
35632;SDS011;21754;48.216;-1.628;2023-04-03T04:15:04;5.38;;;2.75;;
35632;SDS011;21754;48.216;-1.628;2023-04-03T04:17:30;5.47;;;3.67;;
35632;SDS011;21754;48.216;-1.628;2023-04-03T04:19:56;6.85;;;2.42;;
35632;SDS011;21754;48.216;-1.628;2023-04-03T04:22:22;5.07;;;2.22;;
35632;SDS011;21754;48.216;-1.628;2023-04-03T04:24:48;6.25;;;2.65;;
35632;SDS011;21754;48.216;-1.628;2023-04-03T04:27:14;10.25;;;2.00;;
35632;SDS011;21754;48.216;-1.628;2023-04-03T04:29:41;12.50;;;3.08;;
35632;SDS011;21754;48.216;-1.628;2023-04-03T04:32:07;4.80;;;1.98;;
35632;SDS011;21754;48.216;-1.628;2023-04-03T04:34:33;10.40;;;2.08;;
35632;SDS011;21754;48.216;-1.628;2023-04-03T04:37:00;9.60;;;1.75;;
35632;SDS011;21754;48.216;-1.628;2023-04-03T04:39:26;12.88;;;2.35;;
35632;SDS011;21754;48.216;-1.628;2023-04-03T04:41:52;16.90;;;2.15;;
35632;SDS011;21754;48.216;-1.628;2023-04-03T04:44:18;6.45;;;2.60;;
35632;SDS011;21754;48.216;-1.628;2023-04-03T04:46:45;5.65;;;2.58;;
35632;SDS011;21754;48.216;-1.628;2023-04-03T04:49:11;9.68;;;2.95;;
35632;SDS011;21754;48.216;-1.628;2023-04-03T04:51:37;4.63;;;1.85;;
35632;SDS011;21754;48.216;-1.628;2023-04-03T04:54:03;6.43;;;2.17;;
35632;SDS011;21754;48.216;-1.628;2023-04-03T04:56:29;7.82;;;2.53;;
35632;SDS011;21754;48.216;-1.628;2023-04-03T04:58:55;6.50;;;2.80;;
35632;SDS011;21754;48.216;-1.628;2023-04-03T05:01:21;6.13;;;2.75;;
35632;SDS011;21754;48.216;-1.628;2023-04-03T05:03:47;13.20;;;2.13;;
35632;SDS011;21754;48.216;-1.628;2023-04-03T05:06:13;9.27;;;2.95;;
35632;SDS011;21754;48.216;-1.628;2023-04-03T05:08:39;8.35;;;3.17;;
35632;SDS011;21754;48.216;-1.628;2023-04-03T05:11:05;5.97;;;2.67;;
35632;SDS011;21754;48.216;-1.628;2023-04-03T05:13:31;11.63;;;3.42;;
35632;SDS011;21754;48.216;-1.628;2023-04-03T05:15:57;9.13;;;2.67;;
35632;SDS011;21754;48.216;-1.628;2023-04-03T05:18:23;3.33;;;1.90;;
35632;SDS011;21754;48.216;-1.628;2023-04-03T05:20:50;12.23;;;3.63;;
35632;SDS011;21754;48.216;-1.628;2023-04-03T05:23:16;9.77;;;2.10;;
35632;SDS011;21754;48.216;-1.628;2023-04-03T05:25:42;7.03;;;2.20;;
35632;SDS011;21754;48.216;-1.628;2023-04-03T05:28:10;4.93;;;2.53;;
35632;SDS011;21754;48.216;-1.628;2023-04-03T05:30:36;10.65;;;2.42;;
35632;SDS011;21754;48.216;-1.628;2023-04-03T05:33:02;5.95;;;2.17;;
35632;SDS011;21754;48.216;-1.628;2023-04-03T05:35:28;5.72;;;2.15;;
35632;SDS011;21754;48.216;-1.628;2023-04-03T05:37:54;5.47;;;2.50;;
35632;SDS011;21754;48.216;-1.628;2023-04-03T05:40:20;6.93;;;2.40;;
35632;SDS011;21754;48.216;-1.628;2023-04-03T05:42:46;6.65;;;3.35;;
35632;SDS011;21754;48.216;-1.628;2023-04-03T05:45:12;11.50;;;3.25;;
35632;SDS011;21754;48.216;-1.628;2023-04-03T05:47:38;4.90;;;2.65;;
35632;SDS011;21754;48.216;-1.628;2023-04-03T05:50:04;8.82;;;3.08;;
35632;SDS011;21754;48.216;-1.628;2023-04-03T05:52:37;7.78;;;2.65;;
35632;SDS011;21754;48.216;-1.628;2023-04-03T05:55:04;3.58;;;2.05;;
35632;SDS011;21754;48.216;-1.628;2023-04-03T05:57:31;7.97;;;2.00;;
35632;SDS011;21754;48.216;-1.628;2023-04-03T05:59:57;3.38;;;2.22;;
35632;SDS011;21754;48.216;-1.628;2023-04-03T06:02:23;3.08;;;2.10;;
35632;SDS011;21754;48.216;-1.628;2023-04-03T06:04:50;3.08;;;1.90;;
35632;SDS011;21754;48.216;-1.628;2023-04-03T06:07:17;5.20;;;2.67;;
35632;SDS011;21754;48.216;-1.628;2023-04-03T06:09:46;4.57;;;3.20;;
35632;SDS011;21754;48.216;-1.628;2023-04-03T06:12:12;6.72;;;3.00;;
35632;SDS011;21754;48.216;-1.628;2023-04-03T06:14:38;6.93;;;3.03;;
35632;SDS011;21754;48.216;-1.628;2023-04-03T06:17:04;7.20;;;2.53;;
35632;SDS011;21754;48.216;-1.628;2023-04-03T06:19:31;4.88;;;3.72;;
35632;SDS011;21754;48.216;-1.628;2023-04-03T06:21:57;10.20;;;2.50;;
35632;SDS011;21754;48.216;-1.628;2023-04-03T06:24:23;12.88;;;4.32;;
35632;SDS011;21754;48.216;-1.628;2023-04-03T06:26:50;4.68;;;2.58;;
35632;SDS011;21754;48.216;-1.628;2023-04-03T06:29:17;6.90;;;2.90;;
35632;SDS011;21754;48.216;-1.628;2023-04-03T06:31:43;4.22;;;3.33;;
35632;SDS011;21754;48.216;-1.628;2023-04-03T06:34:09;3.13;;;2.92;;
35632;SDS011;21754;48.216;-1.628;2023-04-03T06:36:36;5.72;;;3.45;;
35632;SDS011;21754;48.216;-1.628;2023-04-03T06:39:03;8.00;;;4.30;;
35632;SDS011;21754;48.216;-1.628;2023-04-03T06:41:29;5.32;;;3.15;;
35632;SDS011;21754;48.216;-1.628;2023-04-03T06:43:55;5.35;;;3.40;;
35632;SDS011;21754;48.216;-1.628;2023-04-03T06:46:23;6.22;;;2.78;;
35632;SDS011;21754;48.216;-1.628;2023-04-03T06:48:49;7.43;;;3.30;;
35632;SDS011;21754;48.216;-1.628;2023-04-03T06:51:19;4.18;;;3.13;;
35632;SDS011;21754;48.216;-1.628;2023-04-03T06:53:47;6.10;;;2.95;;
35632;SDS011;21754;48.216;-1.628;2023-04-03T06:56:13;6.32;;;3.45;;
35632;SDS011;21754;48.216;-1.628;2023-04-03T06:58:39;5.53;;;3.40;;
35632;SDS011;21754;48.216;-1.628;2023-04-03T07:01:06;13.77;;;4.00;;
35632;SDS011;21754;48.216;-1.628;2023-04-03T07:03:32;3.92;;;3.63;;
35632;SDS011;21754;48.216;-1.628;2023-04-03T07:05:58;7.85;;;3.35;;
35632;SDS011;21754;48.216;-1.628;2023-04-03T07:08:24;12.38;;;3.75;;
35632;SDS011;21754;48.216;-1.628;2023-04-03T07:10:51;3.40;;;3.05;;
35632;SDS011;21754;48.216;-1.628;2023-04-03T07:13:17;3.50;;;2.90;;
35632;SDS011;21754;48.216;-1.628;2023-04-03T07:15:43;8.57;;;3.40;;
35632;SDS011;21754;48.216;-1.628;2023-04-03T07:18:09;4.53;;;3.45;;
35632;SDS011;21754;48.216;-1.628;2023-04-03T07:20:35;10.70;;;3.88;;
35632;SDS011;21754;48.216;-1.628;2023-04-03T07:23:01;7.68;;;3.40;;
35632;SDS011;21754;48.216;-1.628;2023-04-03T07:25:27;5.18;;;3.85;;
35632;SDS011;21754;48.216;-1.628;2023-04-03T07:27:53;4.40;;;4.18;;
35632;SDS011;21754;48.216;-1.628;2023-04-03T07:30:20;4.53;;;3.80;;
35632;SDS011;21754;48.216;-1.628;2023-04-03T07:32:47;10.32;;;5.30;;
35632;SDS011;21754;48.216;-1.628;2023-04-03T07:35:13;10.32;;;5.10;;
35632;SDS011;21754;48.216;-1.628;2023-04-03T07:37:39;7.95;;;3.55;;
35632;SDS011;21754;48.216;-1.628;2023-04-03T07:40:05;5.65;;;3.88;;
35632;SDS011;21754;48.216;-1.628;2023-04-03T07:42:32;17.38;;;6.38;;
35632;SDS011;21754;48.216;-1.628;2023-04-03T07:44:58;8.15;;;4.63;;
35632;SDS011;21754;48.216;-1.628;2023-04-03T07:47:25;5.28;;;4.13;;
35632;SDS011;21754;48.216;-1.628;2023-04-03T07:49:51;8.07;;;4.80;;
35632;SDS011;21754;48.216;-1.628;2023-04-03T07:52:17;5.97;;;5.03;;
35632;SDS011;21754;48.216;-1.628;2023-04-03T07:54:43;8.75;;;4.28;;
35632;SDS011;21754;48.216;-1.628;2023-04-03T07:57:09;11.38;;;5.35;;
35632;SDS011;21754;48.216;-1.628;2023-04-03T07:59:36;11.45;;;4.53;;
35632;SDS011;21754;48.216;-1.628;2023-04-03T08:02:02;6.80;;;4.70;;
35632;SDS011;21754;48.216;-1.628;2023-04-03T08:04:30;7.47;;;4.77;;
35632;SDS011;21754;48.216;-1.628;2023-04-03T08:06:56;12.00;;;6.07;;
35632;SDS011;21754;48.216;-1.628;2023-04-03T08:09:22;9.38;;;4.40;;
35632;SDS011;21754;48.216;-1.628;2023-04-03T08:11:48;6.82;;;4.60;;
35632;SDS011;21754;48.216;-1.628;2023-04-03T08:14:18;7.47;;;4.63;;
35632;SDS011;21754;48.216;-1.628;2023-04-03T08:16:44;7.50;;;5.25;;
35632;SDS011;21754;48.216;-1.628;2023-04-03T08:19:11;6.53;;;5.53;;
35632;SDS011;21754;48.216;-1.628;2023-04-03T08:21:39;8.27;;;5.33;;
35632;SDS011;21754;48.216;-1.628;2023-04-03T08:24:06;5.78;;;4.95;;
35632;SDS011;21754;48.216;-1.628;2023-04-03T08:26:33;15.85;;;6.13;;
35632;SDS011;21754;48.216;-1.628;2023-04-03T08:28:59;7.45;;;6.13;;
35632;SDS011;21754;48.216;-1.628;2023-04-03T08:31:25;13.20;;;6.55;;
35632;SDS011;21754;48.216;-1.628;2023-04-03T08:33:51;11.13;;;6.47;;
35632;SDS011;21754;48.216;-1.628;2023-04-03T08:36:21;5.85;;;5.15;;
35632;SDS011;21754;48.216;-1.628;2023-04-03T08:38:48;10.27;;;5.68;;
35632;SDS011;21754;48.216;-1.628;2023-04-03T08:41:32;8.38;;;6.88;;
35632;SDS011;21754;48.216;-1.628;2023-04-03T08:47:10;8.63;;;6.45;;
35632;SDS011;21754;48.216;-1.628;2023-04-03T08:51:56;7.45;;;5.35;;
35632;SDS011;21754;48.216;-1.628;2023-04-03T08:56:55;7.60;;;5.50;;
35632;SDS011;21754;48.216;-1.628;2023-04-03T08:59:26;7.07;;;5.22;;
35632;SDS011;21754;48.216;-1.628;2023-04-03T09:01:53;8.23;;;6.03;;
35632;SDS011;21754;48.216;-1.628;2023-04-03T09:04:19;9.20;;;5.60;;
35632;SDS011;21754;48.216;-1.628;2023-04-03T09:06:47;8.63;;;6.10;;
35632;SDS011;21754;48.216;-1.628;2023-04-03T09:09:16;8.65;;;5.63;;
35632;SDS011;21754;48.216;-1.628;2023-04-03T09:11:54;9.25;;;6.50;;
35632;SDS011;21754;48.216;-1.628;2023-04-03T09:16:59;7.30;;;6.25;;
35632;SDS011;21754;48.216;-1.628;2023-04-03T09:22:03;7.88;;;5.70;;
35632;SDS011;21754;48.216;-1.628;2023-04-03T09:24:37;6.00;;;5.40;;
35632;SDS011;21754;48.216;-1.628;2023-04-03T09:27:05;9.05;;;6.35;;
35632;SDS011;21754;48.216;-1.628;2023-04-03T09:29:33;8.93;;;5.90;;
35632;SDS011;21754;48.216;-1.628;2023-04-03T09:32:02;8.38;;;6.50;;
35632;SDS011;21754;48.216;-1.628;2023-04-03T09:34:37;8.10;;;6.03;;
35632;SDS011;21754;48.216;-1.628;2023-04-03T09:37:05;8.15;;;6.25;;
35632;SDS011;21754;48.216;-1.628;2023-04-03T09:39:32;11.68;;;7.30;;
35632;SDS011;21754;48.216;-1.628;2023-04-03T09:42:03;8.07;;;6.55;;
35632;SDS011;21754;48.216;-1.628;2023-04-03T09:44:33;9.98;;;6.40;;
35632;SDS011;21754;48.216;-1.628;2023-04-03T09:47:00;8.15;;;5.70;;
35632;SDS011;21754;48.216;-1.628;2023-04-03T09:49:42;7.82;;;5.47;;
35632;SDS011;21754;48.216;-1.628;2023-04-03T09:52:18;7.85;;;6.95;;
35632;SDS011;21754;48.216;-1.628;2023-04-03T09:54:44;8.35;;;6.35;;
35632;SDS011;21754;48.216;-1.628;2023-04-03T09:57:11;9.43;;;6.18;;
35632;SDS011;21754;48.216;-1.628;2023-04-03T09:59:41;10.10;;;7.03;;
35632;SDS011;21754;48.216;-1.628;2023-04-03T10:04:38;7.03;;;5.93;;
35632;SDS011;21754;48.216;-1.628;2023-04-03T10:07:04;8.82;;;7.47;;
35632;SDS011;21754;48.216;-1.628;2023-04-03T10:10:00;11.10;;;7.80;;
35632;SDS011;21754;48.216;-1.628;2023-04-03T10:12:28;8.60;;;7.00;;
35632;SDS011;21754;48.216;-1.628;2023-04-03T10:14:58;8.73;;;6.70;;
35632;SDS011;21754;48.216;-1.628;2023-04-03T10:22:34;9.05;;;7.47;;
35632;SDS011;21754;48.216;-1.628;2023-04-03T10:27:38;8.93;;;7.78;;
35632;SDS011;21754;48.216;-1.628;2023-04-03T10:30:17;8.68;;;6.32;;
35632;SDS011;21754;48.216;-1.628;2023-04-03T10:33:28;7.45;;;5.65;;
35632;SDS011;21754;48.216;-1.628;2023-04-03T10:38:26;9.43;;;6.90;;
35632;SDS011;21754;48.216;-1.628;2023-04-03T10:41:02;11.05;;;7.32;;
35632;SDS011;21754;48.216;-1.628;2023-04-03T10:46:13;11.82;;;6.93;;
35632;SDS011;21754;48.216;-1.628;2023-04-03T10:51:24;10.00;;;7.25;;
35632;SDS011;21754;48.216;-1.628;2023-04-03T10:53:56;9.93;;;7.50;;
35632;SDS011;21754;48.216;-1.628;2023-04-03T10:56:48;8.45;;;7.03;;
35632;SDS011;21754;48.216;-1.628;2023-04-03T11:01:53;10.85;;;6.95;;
35632;SDS011;21754;48.216;-1.628;2023-04-03T11:04:21;9.63;;;7.20;;
35632;SDS011;21754;48.216;-1.628;2023-04-03T11:06:50;9.40;;;6.93;;
35632;SDS011;21754;48.216;-1.628;2023-04-03T11:09:28;10.52;;;8.02;;
35632;SDS011;21754;48.216;-1.628;2023-04-03T11:12:57;8.40;;;6.30;;
35632;SDS011;21754;48.216;-1.628;2023-04-03T11:14:51;8.27;;;6.72;;
35632;SDS011;21754;48.216;-1.628;2023-04-03T11:20:05;10.10;;;7.32;;
35632;SDS011;21754;48.216;-1.628;2023-04-03T11:22:33;8.68;;;7.20;;
35632;SDS011;21754;48.216;-1.628;2023-04-03T11:27:44;8.55;;;6.43;;
35632;SDS011;21754;48.216;-1.628;2023-04-03T11:30:24;7.65;;;6.85;;
35632;SDS011;21754;48.216;-1.628;2023-04-03T11:33:10;8.18;;;6.57;;
35632;SDS011;21754;48.216;-1.628;2023-04-03T11:35:45;8.05;;;6.28;;
35632;SDS011;21754;48.216;-1.628;2023-04-03T11:38:23;9.20;;;6.53;;
35632;SDS011;21754;48.216;-1.628;2023-04-03T11:40:51;6.93;;;5.57;;
35632;SDS011;21754;48.216;-1.628;2023-04-03T11:43:25;8.43;;;6.50;;
35632;SDS011;21754;48.216;-1.628;2023-04-03T11:45:56;8.57;;;6.75;;
35632;SDS011;21754;48.216;-1.628;2023-04-03T11:50:53;9.75;;;6.18;;
35632;SDS011;21754;48.216;-1.628;2023-04-03T11:58:20;12.05;;;6.22;;
35632;SDS011;21754;48.216;-1.628;2023-04-03T12:21:16;8.90;;;6.88;;
35632;SDS011;21754;48.216;-1.628;2023-04-03T12:24:00;8.50;;;6.55;;
35632;SDS011;21754;48.216;-1.628;2023-04-03T12:27:16;6.38;;;5.65;;
35632;SDS011;21754;48.216;-1.628;2023-04-03T12:39:55;6.95;;;5.80;;
35632;SDS011;21754;48.216;-1.628;2023-04-03T12:47:31;6.28;;;5.65;;
35632;SDS011;21754;48.216;-1.628;2023-04-03T12:49:58;6.88;;;5.07;;
35632;SDS011;21754;48.216;-1.628;2023-04-03T12:54:57;6.55;;;5.85;;
35632;SDS011;21754;48.216;-1.628;2023-04-03T12:57:24;5.10;;;4.70;;
35632;SDS011;21754;48.216;-1.628;2023-04-03T12:59:51;8.23;;;5.97;;
35632;SDS011;21754;48.216;-1.628;2023-04-03T13:02:30;5.93;;;5.35;;
35632;SDS011;21754;48.216;-1.628;2023-04-03T13:04:59;8.05;;;6.40;;
35632;SDS011;21754;48.216;-1.628;2023-04-03T13:07:31;7.60;;;5.88;;
35632;SDS011;21754;48.216;-1.628;2023-04-03T13:10:19;10.25;;;5.43;;
35632;SDS011;21754;48.216;-1.628;2023-04-03T13:12:45;7.78;;;7.07;;
35632;SDS011;21754;48.216;-1.628;2023-04-03T13:15:14;6.17;;;5.57;;
35632;SDS011;21754;48.216;-1.628;2023-04-03T13:17:41;6.75;;;4.90;;
35632;SDS011;21754;48.216;-1.628;2023-04-03T13:20:12;6.43;;;5.83;;
35632;SDS011;21754;48.216;-1.628;2023-04-03T13:22:45;8.10;;;5.95;;
35632;SDS011;21754;48.216;-1.628;2023-04-03T13:25:13;7.93;;;5.95;;
35632;SDS011;21754;48.216;-1.628;2023-04-03T13:27:40;6.13;;;5.50;;
35632;SDS011;21754;48.216;-1.628;2023-04-03T13:32:35;6.35;;;5.35;;
35632;SDS011;21754;48.216;-1.628;2023-04-03T13:35:01;7.20;;;5.90;;
35632;SDS011;21754;48.216;-1.628;2023-04-03T13:37:30;5.88;;;5.28;;
35632;SDS011;21754;48.216;-1.628;2023-04-03T13:40:03;5.65;;;4.88;;
35632;SDS011;21754;48.216;-1.628;2023-04-03T13:42:30;5.43;;;4.93;;
35632;SDS011;21754;48.216;-1.628;2023-04-03T13:47:42;8.32;;;5.78;;
35632;SDS011;21754;48.216;-1.628;2023-04-03T13:55:30;6.68;;;5.95;;
35632;SDS011;21754;48.216;-1.628;2023-04-03T14:00:39;6.25;;;5.60;;
35632;SDS011;21754;48.216;-1.628;2023-04-03T14:03:16;5.57;;;5.00;;
35632;SDS011;21754;48.216;-1.628;2023-04-03T14:05:44;5.65;;;4.95;;
35632;SDS011;21754;48.216;-1.628;2023-04-03T14:08:10;8.70;;;6.10;;
35632;SDS011;21754;48.216;-1.628;2023-04-03T14:10:36;5.65;;;5.18;;
35632;SDS011;21754;48.216;-1.628;2023-04-03T14:13:03;7.80;;;5.40;;
35632;SDS011;21754;48.216;-1.628;2023-04-03T14:15:30;5.35;;;4.90;;
35632;SDS011;21754;48.216;-1.628;2023-04-03T14:17:57;4.93;;;4.47;;
35632;SDS011;21754;48.216;-1.628;2023-04-03T14:20:24;7.07;;;5.75;;
35632;SDS011;21754;48.216;-1.628;2023-04-03T14:22:51;7.15;;;5.45;;
35632;SDS011;21754;48.216;-1.628;2023-04-03T14:25:17;6.35;;;4.60;;
35632;SDS011;21754;48.216;-1.628;2023-04-03T14:27:47;5.43;;;4.93;;
35632;SDS011;21754;48.216;-1.628;2023-04-03T14:30:18;5.70;;;5.10;;
35632;SDS011;21754;48.216;-1.628;2023-04-03T14:32:45;6.00;;;5.43;;
35632;SDS011;21754;48.216;-1.628;2023-04-03T14:35:12;6.07;;;4.88;;
35632;SDS011;21754;48.216;-1.628;2023-04-03T14:37:39;8.38;;;5.45;;
35632;SDS011;21754;48.216;-1.628;2023-04-03T14:40:06;6.18;;;5.07;;
35632;SDS011;21754;48.216;-1.628;2023-04-03T14:42:33;8.67;;;5.70;;
35632;SDS011;21754;48.216;-1.628;2023-04-03T14:45:01;5.82;;;5.22;;
35632;SDS011;21754;48.216;-1.628;2023-04-03T14:47:28;5.80;;;4.97;;
35632;SDS011;21754;48.216;-1.628;2023-04-03T14:49:55;6.30;;;4.43;;
35632;SDS011;21754;48.216;-1.628;2023-04-03T14:54:48;5.75;;;5.13;;
35632;SDS011;21754;48.216;-1.628;2023-04-03T14:57:14;5.05;;;4.65;;
35632;SDS011;21754;48.216;-1.628;2023-04-03T14:59:41;6.65;;;6.00;;
35632;SDS011;21754;48.216;-1.628;2023-04-03T15:02:50;4.20;;;3.80;;
35632;SDS011;21754;48.216;-1.628;2023-04-03T15:04:57;5.28;;;4.60;;
35632;SDS011;21754;48.216;-1.628;2023-04-03T15:07:24;5.63;;;4.50;;
35632;SDS011;21754;48.216;-1.628;2023-04-03T15:09:52;4.68;;;4.28;;
35632;SDS011;21754;48.216;-1.628;2023-04-03T15:12:21;5.18;;;4.68;;
35632;SDS011;21754;48.216;-1.628;2023-04-03T15:14:47;6.18;;;5.50;;
35632;SDS011;21754;48.216;-1.628;2023-04-03T15:17:19;5.68;;;4.78;;
35632;SDS011;21754;48.216;-1.628;2023-04-03T15:19:47;5.63;;;4.60;;
35632;SDS011;21754;48.216;-1.628;2023-04-03T15:22:17;9.65;;;4.97;;
35632;SDS011;21754;48.216;-1.628;2023-04-03T15:24:43;6.18;;;4.60;;
35632;SDS011;21754;48.216;-1.628;2023-04-03T15:27:10;6.75;;;5.05;;
35632;SDS011;21754;48.216;-1.628;2023-04-03T15:29:37;5.05;;;4.60;;
35632;SDS011;21754;48.216;-1.628;2023-04-03T15:32:03;4.63;;;4.22;;
35632;SDS011;21754;48.216;-1.628;2023-04-03T15:34:29;7.13;;;5.03;;
35632;SDS011;21754;48.216;-1.628;2023-04-03T15:36:56;7.05;;;5.30;;
35632;SDS011;21754;48.216;-1.628;2023-04-03T15:39:22;5.88;;;4.57;;
35632;SDS011;21754;48.216;-1.628;2023-04-03T15:41:48;11.00;;;4.95;;
35632;SDS011;21754;48.216;-1.628;2023-04-03T15:44:15;4.60;;;4.13;;
35632;SDS011;21754;48.216;-1.628;2023-04-03T15:46:47;6.00;;;3.97;;
35632;SDS011;21754;48.216;-1.628;2023-04-03T15:49:17;4.55;;;4.13;;
35632;SDS011;21754;48.216;-1.628;2023-04-03T15:51:44;5.43;;;4.05;;
35632;SDS011;21754;48.216;-1.628;2023-04-03T15:54:10;9.80;;;5.18;;
35632;SDS011;21754;48.216;-1.628;2023-04-03T15:56:36;4.60;;;4.20;;
35632;SDS011;21754;48.216;-1.628;2023-04-03T15:59:02;4.03;;;3.65;;
35632;SDS011;21754;48.216;-1.628;2023-04-03T16:01:28;5.20;;;4.68;;
35632;SDS011;21754;48.216;-1.628;2023-04-03T16:03:54;3.78;;;3.47;;
35632;SDS011;21754;48.216;-1.628;2023-04-03T16:06:21;4.97;;;2.97;;
35632;SDS011;21754;48.216;-1.628;2023-04-03T16:08:47;5.05;;;3.92;;
35632;SDS011;21754;48.216;-1.628;2023-04-03T16:11:13;3.83;;;3.53;;
35632;SDS011;21754;48.216;-1.628;2023-04-03T16:13:39;4.13;;;3.80;;
35632;SDS011;21754;48.216;-1.628;2023-04-03T16:16:05;4.43;;;4.00;;
35632;SDS011;21754;48.216;-1.628;2023-04-03T16:18:32;3.05;;;2.78;;
35632;SDS011;21754;48.216;-1.628;2023-04-03T16:20:59;4.90;;;3.35;;
35632;SDS011;21754;48.216;-1.628;2023-04-03T16:23:26;3.88;;;3.55;;
35632;SDS011;21754;48.216;-1.628;2023-04-03T16:25:52;3.25;;;2.88;;